createdAt,value
2023-05-01T00:00:42.409Z,0
2023-05-01T00:05:51.546Z,0
2023-05-01T00:11:01.366Z,0
2023-05-01T00:16:11.240Z,0
2023-05-01T00:21:19.525Z,0
2023-05-01T00:26:28.019Z,0
2023-05-01T00:31:37.359Z,0
2023-05-01T00:36:50.237Z,0
2023-05-01T00:41:54.766Z,0
2023-05-01T00:47:05.181Z,0
2023-05-01T00:52:14.898Z,0
2023-05-01T00:57:24.651Z,0
2023-05-01T01:02:33.888Z,0
2023-05-01T01:07:42.267Z,0
2023-05-01T01:12:51.434Z,0
2023-05-01T01:18:00.704Z,0
2023-05-01T01:23:08.975Z,0
2023-05-01T01:28:18.117Z,0
2023-05-01T01:33:27.851Z,0
2023-05-01T01:38:37.004Z,0
2023-05-01T01:43:46.121Z,0
2023-05-01T01:48:55.872Z,0
2023-05-01T01:54:04.339Z,0
2023-05-01T01:59:14.098Z,0
2023-05-01T02:04:23.876Z,0
2023-05-01T02:09:32.319Z,0
2023-05-01T02:14:41.487Z,0
2023-05-01T02:19:51.206Z,0
2023-05-01T02:25:00.373Z,0
2023-05-01T02:30:09.491Z,0
2023-05-01T04:03:06.748Z,52
2023-05-01T04:08:14.258Z,77
2023-05-01T04:13:22.742Z,123
2023-05-01T04:18:32.517Z,164
2023-05-01T04:24:04.703Z,211
2023-05-01T04:29:13.825Z,258
2023-05-01T04:34:23.552Z,299
2023-05-01T04:39:31.393Z,361
2023-05-01T04:44:39.875Z,433
2023-05-01T04:49:47.683Z,509
2023-05-01T04:54:56.180Z,577
2023-05-01T05:00:05.331Z,637
2023-05-01T05:05:15.087Z,713
2023-05-01T05:10:23.554Z,781
2023-05-01T05:15:33.299Z,885
2023-05-01T05:20:42.427Z,1087
2023-05-01T05:25:52.202Z,1148
2023-05-01T05:31:00.672Z,1292
2023-05-01T05:36:10.438Z,1577
2023-05-01T05:41:22.752Z,1756
2023-05-01T05:46:33.462Z,1735
2023-05-01T05:51:42.281Z,1585
2023-05-01T05:56:52.024Z,1501
2023-05-01T06:02:01.363Z,1442
2023-05-01T06:07:08.997Z,1440
2023-05-01T06:12:19.134Z,1485
2023-05-01T06:17:28.686Z,1589
2023-05-01T06:22:37.239Z,1732
2023-05-01T06:27:45.473Z,1956
2023-05-01T06:32:55.586Z,2267
2023-05-01T06:38:03.712Z,2436
2023-05-01T06:43:13.475Z,2617
2023-05-01T06:48:21.995Z,3077
2023-05-01T06:53:32.324Z,3216
2023-05-01T06:58:40.812Z,2882
2023-05-01T07:03:49.318Z,2955
2023-05-01T08:00:32.924Z,3174
2023-05-01T08:05:41.334Z,3099
2023-05-01T08:10:51.064Z,3042
2023-05-01T08:16:01.092Z,3091
2023-05-01T08:21:10.574Z,3278
2023-05-01T08:26:23.031Z,3402
2023-05-01T08:31:29.671Z,3164
2023-05-01T08:36:37.937Z,3399
2023-05-01T08:41:47.110Z,3585
2023-05-01T08:46:56.384Z,3750
2023-05-01T08:52:05.952Z,3278
2023-05-01T08:57:15.759Z,2978
2023-05-01T09:02:25.109Z,2941
2023-05-01T09:07:33.946Z,3348
2023-05-01T09:12:45.002Z,3190
2023-05-01T09:17:54.337Z,3341
2023-05-01T09:23:03.231Z,2955
2023-05-01T09:28:12.364Z,2855
2023-05-01T09:33:21.601Z,2828
2023-05-01T09:38:30.704Z,3147
2023-05-01T09:43:39.183Z,3906
2023-05-01T09:48:48.831Z,2990
2023-05-01T09:53:57.987Z,3059
2023-05-01T09:59:07.062Z,3167
2023-05-01T10:04:16.845Z,2673
2023-05-01T10:09:26.609Z,2455
2023-05-01T10:14:35.782Z,2389
2023-05-01T10:19:45.441Z,2552
2023-05-01T10:24:54.581Z,1833
2023-05-01T10:30:03.717Z,1891
2023-05-01T10:35:13.480Z,2225
2023-05-01T10:40:23.975Z,2378
2023-05-01T10:45:36.090Z,3296
2023-05-01T10:50:41.484Z,3581
2023-05-01T10:55:50.602Z,3603
2023-05-01T11:00:59.049Z,2770
2023-05-01T11:52:34.164Z,3027
2023-05-01T11:57:41.302Z,3085
2023-05-01T12:02:50.669Z,3213
2023-05-01T12:08:00.226Z,3146
2023-05-01T12:13:09.327Z,2947
2023-05-01T12:18:18.900Z,2815
2023-05-01T12:34:43.508Z,2829
2023-05-01T12:39:52.516Z,2830
2023-05-01T12:45:02.959Z,2647
2023-05-01T12:50:11.518Z,2449
2023-05-01T12:55:21.139Z,2262
2023-05-01T13:00:30.297Z,2074
2023-05-01T13:05:40.070Z,2002
2023-05-01T13:10:49.797Z,1946
2023-05-01T13:15:58.454Z,1792
2023-05-01T13:21:06.736Z,1747
2023-05-01T13:26:15.202Z,1854
2023-05-01T13:31:25.161Z,2094
2023-05-01T13:36:34.093Z,2557
2023-05-01T13:41:43.270Z,2759
2023-05-01T13:46:52.978Z,1635
2023-05-01T13:52:01.465Z,1598
2023-05-01T13:57:09.287Z,1624
2023-05-01T14:02:18.011Z,1788
2023-05-01T14:07:29.455Z,1975
2023-05-01T14:12:39.854Z,1949
2023-05-01T14:17:50.815Z,1955
2023-05-01T14:23:00.022Z,1936
2023-05-01T14:28:08.529Z,1848
2023-05-01T14:33:17.364Z,1936
2023-05-01T14:38:26.102Z,2161
2023-05-01T14:43:37.767Z,2540
2023-05-01T14:48:47.594Z,2995
2023-05-01T14:53:56.688Z,2833
2023-05-01T14:59:05.156Z,1800
2023-05-01T15:04:15.636Z,1269
2023-05-01T15:09:24.676Z,894
2023-05-01T15:14:33.799Z,630
2023-05-01T15:19:42.275Z,443
2023-05-01T15:24:52.075Z,305
2023-05-01T16:16:31.865Z,169
2023-05-01T16:21:40.731Z,169
2023-05-01T16:26:49.156Z,165
2023-05-01T16:31:59.149Z,172
2023-05-01T16:37:08.056Z,202
2023-05-01T16:42:17.185Z,273
2023-05-01T16:47:26.268Z,377
2023-05-01T16:52:35.375Z,519
2023-05-01T16:57:45.129Z,636
2023-05-01T17:02:54.452Z,683
2023-05-01T17:08:02.745Z,752
2023-05-01T17:13:12.495Z,828
2023-05-01T17:18:20.973Z,800
2023-05-01T17:23:31.394Z,777
2023-05-01T17:28:41.140Z,801
2023-05-01T17:33:50.912Z,676
2023-05-01T17:39:00.046Z,558
2023-05-01T17:44:09.803Z,426
2023-05-01T17:49:18.251Z,338
2023-05-01T17:54:27.410Z,305
2023-05-01T17:59:36.525Z,267
2023-05-01T18:04:45.616Z,218
2023-05-01T18:09:54.960Z,186
2023-05-01T18:15:03.277Z,139
2023-05-01T18:20:11.710Z,124
2023-05-01T18:25:20.815Z,127
2023-05-01T18:30:31.862Z,123
2023-05-01T18:35:39.104Z,100
2023-05-01T18:40:47.553Z,78
2023-05-01T18:45:56.876Z,58
2023-05-01T18:51:09.827Z,41
2023-05-01T18:56:14.258Z,26
2023-05-01T19:01:24.159Z,16
2023-05-01T19:06:34.098Z,10
2023-05-01T19:11:42.368Z,6
2023-05-01T19:58:05.098Z,0
2023-05-01T20:03:15.090Z,0
2023-05-01T20:08:23.883Z,0
2023-05-01T20:13:33.616Z,0
2023-05-01T20:18:42.123Z,0
2023-05-01T20:23:52.146Z,0
2023-05-01T20:29:01.663Z,0
2023-05-01T20:34:11.404Z,0
2023-05-01T20:39:19.243Z,0
2023-05-01T20:44:29.653Z,0
2023-05-01T20:49:39.381Z,0
2023-05-01T20:54:51.076Z,0
2023-05-01T21:00:01.328Z,0
2023-05-01T21:05:09.398Z,0
2023-05-01T21:10:17.785Z,0
2023-05-01T21:15:26.286Z,0
2023-05-01T21:20:34.170Z,0
2023-05-01T21:25:43.236Z,0
2023-05-01T21:30:51.715Z,0
2023-05-01T21:36:00.827Z,0
2023-05-01T21:41:10.576Z,0
2023-05-01T21:46:19.819Z,0
2023-05-01T21:51:28.193Z,0
2023-05-01T21:56:37.951Z,0
2023-05-01T22:01:47.180Z,0
2023-05-01T22:06:56.184Z,0
2023-05-01T22:12:05.961Z,0
2023-05-01T22:17:14.402Z,0
2023-05-01T22:22:23.560Z,0
2023-05-01T22:27:34.603Z,0
2023-05-01T22:32:43.974Z,0
2023-05-01T22:37:53.468Z,0
2023-05-01T22:43:03.858Z,0
2023-05-01T22:48:13.436Z,0
2023-05-01T23:39:50.659Z,0
2023-05-01T23:44:58.470Z,0
2023-05-01T23:50:08.240Z,0
2023-05-01T23:55:17.966Z,0
